Time;durP1;ratioP1;P1;durP2;ratioP2;P2;SDS_P1;SDS_P2;PMS_P1;PMS_P2;Temp;Humidity;BMP_temperature;BMP_pressure;BME280_temperature;BME280_humidity;BME280_pressure;Samples;Min_cycle;Max_cycle;Signal;HPM_P1;HPM_P2
2022/10/01 00:02:03;;;;;;;10.55;9.23;;;19.10;81.50;;;;;;5036271;28;20484;-75
2022/10/01 00:04:29;;;;;;;10.23;9.20;;;19.10;81.50;;;;;;5036482;28;20037;-76
2022/10/01 00:06:58;;;;;;;9.35;8.35;;;19.00;81.50;;;;;;5036283;28;20061;-76
2022/10/01 00:09:24;;;;;;;10.30;9.07;;;19.10;81.50;;;;;;5036207;28;20112;-76
2022/10/01 00:11:51;;;;;;;10.00;8.95;;;19.00;81.40;;;;;;5036306;28;20034;-75
2022/10/01 00:14:17;;;;;;;10.18;8.82;;;19.10;81.50;;;;;;5036175;28;20526;-76
2022/10/01 00:16:42;;;;;;;11.18;9.38;;;19.10;81.50;;;;;;5034971;28;20112;-77
2022/10/01 00:19:12;;;;;;;10.95;9.55;;;19.10;81.50;;;;;;5035425;28;20499;-76
2022/10/01 00:21:38;;;;;;;11.40;9.43;;;19.10;81.40;;;;;;5034787;28;20033;-76
2022/10/01 00:24:05;;;;;;;10.40;9.20;;;19.10;81.50;;;;;;5035893;28;20096;-77
2022/10/01 00:26:35;;;;;;;10.70;9.50;;;19.10;81.40;;;;;;5034862;28;20025;-77
2022/10/01 00:29:06;;;;;;;10.15;8.65;;;19.00;81.40;;;;;;5035695;28;20069;-76
2022/10/01 00:31:32;;;;;;;10.57;9.20;;;19.00;81.40;;;;;;5035620;28;20061;-75
2022/10/01 00:34:04;;;;;;;10.88;9.48;;;19.10;81.40;;;;;;5034656;28;20029;-76
2022/10/01 00:36:31;;;;;;;10.48;9.27;;;19.00;81.40;;;;;;5035931;28;20061;-77
2022/10/01 00:38:59;;;;;;;9.75;8.45;;;19.10;81.50;;;;;;5034311;28;20054;-76
2022/10/01 00:41:30;;;;;;;10.52;8.73;;;19.00;81.40;;;;;;5035520;28;20057;-76
2022/10/01 00:43:59;;;;;;;10.05;8.85;;;19.00;81.40;;;;;;5034580;28;20083;-76
2022/10/01 00:46:52;;;;;;;10.15;9.02;;;19.00;81.30;;;;;;5035787;28;20100;-76
2022/10/01 00:49:26;;;;;;;10.77;9.25;;;19.00;81.20;;;;;;5033694;28;20136;-79
2022/10/01 00:51:59;;;;;;;9.00;8.10;;;19.00;81.30;;;;;;5017564;28;20030;-76
2022/10/01 00:54:30;;;;;;;10.40;8.48;;;19.00;81.30;;;;;;5035887;28;20033;-76
2022/10/01 00:56:58;;;;;;;9.70;8.13;;;19.00;81.30;;;;;;5035823;28;20017;-76
2022/10/01 00:59:25;;;;;;;9.82;8.80;;;19.00;81.30;;;;;;5034239;28;20033;-76
2022/10/01 01:01:51;;;;;;;10.30;8.82;;;19.00;81.30;;;;;;5033751;28;20167;-77
2022/10/01 01:04:17;;;;;;;9.63;8.70;;;19.00;81.30;;;;;;5035258;28;20061;-78
2022/10/01 01:07:02;;;;;;;9.70;8.55;;;19.00;81.30;;;;;;5035313;28;20021;-77
2022/10/01 01:09:34;;;;;;;9.70;8.18;;;19.00;81.20;;;;;;5035102;28;20029;-76
2022/10/01 01:12:36;;;;;;;9.27;8.27;;;18.90;81.20;;;;;;5034034;28;20113;-77
2022/10/01 01:15:56;;;;;;;9.30;7.75;;;18.90;81.10;;;;;;5035435;28;20025;-76
2022/10/01 01:18:25;;;;;;;9.32;8.32;;;18.90;81.10;;;;;;4993501;28;20033;-76
2022/10/01 01:21:02;;;;;;;9.40;8.13;;;18.90;81.10;;;;;;4977142;28;20026;-77
2022/10/01 01:23:40;;;;;;;10.75;8.68;;;18.90;81.10;;;;;;5007661;28;20034;-75
2022/10/01 01:26:24;;;;;;;10.35;9.02;;;18.90;81.10;;;;;;5034977;28;20087;-77
2022/10/01 01:29:00;;;;;;;8.93;7.53;;;18.90;81.10;;;;;;5034882;28;20099;-77
2022/10/01 01:31:36;;;;;;;9.98;8.13;;;18.90;81.10;;;;;;5033580;28;20021;-76
2022/10/01 01:34:04;;;;;;;9.23;8.23;;;18.90;81.10;;;;;;5034641;28;20033;-77
2022/10/01 01:36:36;;;;;;;11.57;9.13;;;18.80;81.10;;;;;;5034899;28;20049;-76
2022/10/01 01:39:08;;;;;;;10.13;8.38;;;18.90;81.10;;;;;;5033329;28;20061;-76
2022/10/01 01:41:39;;;;;;;9.40;8.07;;;18.80;81.10;;;;;;5034797;28;20034;-76
2022/10/01 01:44:08;;;;;;;9.02;8.07;;;18.80;81.10;;;;;;5033831;28;20053;-76
2022/10/01 01:46:37;;;;;;;8.73;7.82;;;18.90;81.10;;;;;;5033558;28;20030;-76
2022/10/01 01:49:04;;;;;;;9.65;8.60;;;18.80;81.10;;;;;;5034647;28;20455;-75
2022/10/01 01:51:51;;;;;;;8.32;7.47;;;18.80;81.00;;;;;;5034695;28;20056;-76
2022/10/01 01:54:18;;;;;;;8.95;8.02;;;18.80;80.90;;;;;;5034335;28;20532;-75
2022/10/01 01:56:44;;;;;;;8.73;7.82;;;18.80;81.00;;;;;;5034406;28;20104;-77
2022/10/01 01:59:11;;;;;;;9.90;8.75;;;18.70;80.90;;;;;;5034373;28;20025;-76
2022/10/01 02:01:42;;;;;;;8.82;7.93;;;18.80;81.50;;;;;;5034603;28;20040;-76
2022/10/01 02:04:19;;;;;;;10.25;8.55;;;18.70;80.90;;;;;;5034361;28;20026;-75
2022/10/01 02:06:55;;;;;;;9.43;7.93;;;18.70;80.90;;;;;;5034206;28;20022;-76
2022/10/01 02:09:30;;;;;;;8.68;7.40;;;18.70;80.90;;;;;;5034507;28;20405;-77
2022/10/01 02:12:29;;;;;;;8.82;7.47;;;18.70;80.90;;;;;;5034360;28;20025;-76
2022/10/01 02:15:16;;;;;;;8.88;7.80;;;18.70;80.90;;;;;;5030912;28;20484;-77
2022/10/01 02:18:08;;;;;;;10.50;8.77;;;18.60;80.80;;;;;;5034121;28;20418;-76
2022/10/01 02:21:08;;;;;;;10.38;9.18;;;18.60;80.90;;;;;;5032812;28;20128;-76
2022/10/01 02:23:42;;;;;;;10.40;9.00;;;18.60;80.90;;;;;;5032464;28;20613;-76
2022/10/01 02:26:13;;;;;;;13.65;9.65;;;18.60;80.90;;;;;;5034180;28;20026;-76
2022/10/01 02:28:41;;;;;;;12.30;9.98;;;18.60;81.00;;;;;;5034295;28;20111;-76
2022/10/01 02:31:09;;;;;;;12.77;10.23;;;18.60;81.00;;;;;;5033775;28;20064;-76
2022/10/01 02:33:36;;;;;;;11.88;9.40;;;18.60;81.10;;;;;;5032438;28;20029;-76
2022/10/01 02:36:05;;;;;;;12.70;9.30;;;18.50;81.00;;;;;;5034079;28;20104;-76
2022/10/01 02:38:34;;;;;;;11.70;9.90;;;18.50;81.00;;;;;;5033846;28;20049;-76
2022/10/01 02:41:03;;;;;;;10.50;9.15;;;18.50;81.00;;;;;;5033520;28;20060;-75
2022/10/01 02:43:34;;;;;;;11.15;9.77;;;18.50;81.00;;;;;;5032678;28;20037;-76
2022/10/01 02:46:16;;;;;;;10.15;9.07;;;18.50;81.00;;;;;;5033567;28;20527;-76
2022/10/01 02:48:42;;;;;;;11.27;9.73;;;18.50;80.90;;;;;;5034018;28;20037;-77
2022/10/01 02:51:21;;;;;;;11.05;9.80;;;18.50;80.90;;;;;;5033866;28;20048;-76
2022/10/01 02:53:51;;;;;;;10.40;9.25;;;18.50;80.90;;;;;;5033602;28;20057;-77
2022/10/01 02:57:21;;;;;;;10.07;8.98;;;18.50;80.80;;;;;;5035748;28;20467;-76
2022/10/01 02:59:06;;;;;;;11.82;8.90;;;18.50;80.90;;;;;;5037512;28;20044;-76
2022/10/01 03:01:32;;;;;;;10.93;8.95;;;18.50;80.80;;;;;;5036762;28;20025;-76
2022/10/01 03:03:58;;;;;;;10.18;9.07;;;18.50;80.80;;;;;;5037684;28;20030;-76
2022/10/01 03:06:24;;;;;;;10.07;8.90;;;18.50;80.80;;;;;;5037754;28;20364;-76
2022/10/01 03:08:50;;;;;;;9.57;8.57;;;18.50;80.80;;;;;;5037496;28;20038;-75
2022/10/01 03:11:15;;;;;;;11.18;8.55;;;18.50;80.70;;;;;;5036163;28;20025;-77
2022/10/01 03:13:42;;;;;;;9.35;8.35;;;18.50;80.70;;;;;;5037589;28;20092;-76
2022/10/01 03:16:08;;;;;;;10.68;9.00;;;18.50;80.70;;;;;;5036097;28;20052;-76
2022/10/01 03:18:33;;;;;;;10.50;9.15;;;18.50;80.70;;;;;;5037241;28;20033;-76
2022/10/01 03:20:59;;;;;;;10.85;8.63;;;18.50;80.70;;;;;;5037056;28;20099;-76
2022/10/01 03:23:24;;;;;;;10.32;8.73;;;18.50;80.60;;;;;;5037077;28;20030;-76
2022/10/01 03:25:50;;;;;;;9.90;8.50;;;18.40;80.60;;;;;;5037108;28;20029;-76
2022/10/01 03:28:16;;;;;;;10.25;8.45;;;18.40;80.60;;;;;;5036093;28;20076;-77
2022/10/01 03:30:41;;;;;;;11.50;8.93;;;18.40;80.50;;;;;;5036918;28;20033;-76
2022/10/01 03:33:07;;;;;;;8.98;7.78;;;18.40;80.50;;;;;;5036941;28;20060;-76
2022/10/01 03:35:32;;;;;;;8.27;7.40;;;18.40;80.50;;;;;;5037367;28;20061;-77
2022/10/01 03:37:58;;;;;;;10.10;8.73;;;18.40;80.50;;;;;;5036800;28;20091;-77
2022/10/01 03:40:24;;;;;;;11.35;8.13;;;18.40;80.50;;;;;;5035832;28;20033;-77
2022/10/01 03:42:50;;;;;;;11.10;8.40;;;18.40;80.50;;;;;;5036655;28;20028;-77
2022/10/01 03:45:15;;;;;;;10.43;8.30;;;18.40;80.60;;;;;;5035614;28;20052;-75
2022/10/01 03:47:41;;;;;;;10.05;8.27;;;18.40;80.50;;;;;;5036702;28;20026;-77
2022/10/01 03:50:07;;;;;;;9.30;8.30;;;18.40;80.50;;;;;;5036758;28;20539;-77
2022/10/01 03:52:33;;;;;;;9.02;7.57;;;18.40;80.60;;;;;;5035584;28;20138;-77
2022/10/01 03:54:59;;;;;;;8.90;8.00;;;18.40;80.60;;;;;;5036623;28;20101;-76
2022/10/01 03:57:25;;;;;;;8.50;7.55;;;18.40;80.60;;;;;;5036957;28;20026;-77
2022/10/01 03:59:50;;;;;;;9.82;8.48;;;18.40;80.50;;;;;;5036568;28;20040;-77
2022/10/01 04:02:16;;;;;;;9.75;8.00;;;18.40;80.50;;;;;;5036459;28;20022;-76
2022/10/01 04:04:42;;;;;;;8.75;7.40;;;18.40;80.50;;;;;;5036616;28;20100;-75
2022/10/01 04:07:07;;;;;;;8.75;7.85;;;18.40;80.50;;;;;;5035735;28;20033;-77
2022/10/01 04:09:33;;;;;;;9.98;8.77;;;18.40;80.60;;;;;;5034980;28;20041;-76
2022/10/01 04:11:58;;;;;;;9.48;8.25;;;18.40;80.60;;;;;;5036651;28;20029;-76
2022/10/01 04:14:24;;;;;;;9.75;8.70;;;18.40;80.50;;;;;;5035096;28;20022;-77
2022/10/01 04:16:51;;;;;;;8.68;7.78;;;18.40;80.60;;;;;;5036029;28;20471;-76
2022/10/01 04:19:18;;;;;;;10.05;8.20;;;18.40;80.50;;;;;;5035062;28;20029;-76
2022/10/01 04:21:44;;;;;;;9.70;8.18;;;18.50;80.60;;;;;;5034882;28;20056;-76
2022/10/01 04:24:09;;;;;;;9.27;8.32;;;18.50;80.60;;;;;;5035858;28;20026;-77
2022/10/01 04:26:35;;;;;;;9.95;7.97;;;18.50;80.50;;;;;;5035819;28;20028;-76
2022/10/01 04:29:00;;;;;;;9.00;7.95;;;18.50;80.60;;;;;;5035259;28;20043;-76
2022/10/01 04:31:26;;;;;;;9.27;8.27;;;18.50;81.10;;;;;;5034788;28;20021;-77
2022/10/01 04:33:54;;;;;;;9.25;7.78;;;18.50;80.50;;;;;;5034834;28;20107;-76
2022/10/01 04:36:20;;;;;;;9.27;8.15;;;18.50;80.50;;;;;;5034851;28;20033;-74
2022/10/01 04:38:48;;;;;;;9.30;8.07;;;18.50;81.10;;;;;;5034334;28;20057;-76
2022/10/01 04:41:14;;;;;;;9.27;7.95;;;18.50;80.50;;;;;;5035905;28;20542;-76
2022/10/01 04:43:40;;;;;;;8.40;7.60;;;18.60;80.50;;;;;;5035521;28;20033;-77
2022/10/01 04:46:06;;;;;;;9.90;7.93;;;18.60;80.50;;;;;;5018212;28;20034;-76
2022/10/01 04:48:31;;;;;;;8.13;6.85;;;18.60;80.50;;;;;;5034233;28;20116;-76
2022/10/01 04:50:57;;;;;;;9.95;7.13;;;18.60;80.50;;;;;;5035802;28;20040;-77
2022/10/01 04:53:23;;;;;;;8.30;7.43;;;18.60;80.40;;;;;;5035574;28;20025;-76
2022/10/01 04:55:48;;;;;;;8.82;7.35;;;18.70;80.50;;;;;;5035909;28;20033;-77
2022/10/01 04:58:14;;;;;;;7.97;6.85;;;18.70;80.50;;;;;;5035732;28;20029;-76
2022/10/01 05:00:40;;;;;;;7.50;6.68;;;18.70;80.40;;;;;;5035452;28;20432;-77
2022/10/01 05:03:05;;;;;;;7.70;6.90;;;18.80;80.30;;;;;;5034097;28;20025;-76
2022/10/01 05:05:33;;;;;;;7.57;6.70;;;18.70;80.20;;;;;;5033900;28;20057;-76
2022/10/01 05:07:59;;;;;;;6.70;6.00;;;18.80;80.10;;;;;;5034985;28;20037;-75
2022/10/01 05:10:28;;;;;;;7.72;6.43;;;18.80;80.00;;;;;;5035346;28;20033;-76
2022/10/01 05:12:54;;;;;;;7.18;6.47;;;18.90;79.90;;;;;;5034030;28;20018;-77
2022/10/01 05:15:19;;;;;;;7.03;5.90;;;18.90;79.80;;;;;;5035022;28;20415;-76
2022/10/01 05:17:46;;;;;;;7.90;6.20;;;18.90;79.70;;;;;;5033520;28;20476;-77
2022/10/01 05:20:20;;;;;;;6.50;5.80;;;19.00;79.70;;;;;;5033025;28;20489;-77
2022/10/01 05:22:48;;;;;;;7.35;6.43;;;19.00;79.60;;;;;;5035168;28;20097;-77
2022/10/01 05:25:14;;;;;;;7.32;5.88;;;19.10;79.50;;;;;;5035409;28;20133;-76
2022/10/01 05:27:41;;;;;;;7.38;6.25;;;19.10;79.40;;;;;;5034858;28;20464;-75
2022/10/01 05:30:12;;;;;;;7.53;6.40;;;19.10;79.30;;;;;;5035078;28;20094;-77
2022/10/01 05:32:38;;;;;;;7.72;6.30;;;19.10;79.30;;;;;;5033567;28;20025;-77
2022/10/01 05:35:05;;;;;;;6.85;6.05;;;19.10;79.20;;;;;;5033576;28;20048;-77
2022/10/01 05:37:31;;;;;;;7.03;6.32;;;19.10;79.20;;;;;;5033381;28;20025;-77
2022/10/01 05:39:57;;;;;;;7.47;6.00;;;19.10;79.20;;;;;;5034509;28;20067;-77
2022/10/01 05:42:23;;;;;;;9.00;6.70;;;19.10;79.20;;;;;;5033553;28;20115;-76
2022/10/01 05:44:49;;;;;;;6.88;6.20;;;19.10;79.30;;;;;;5034442;28;20099;-77
2022/10/01 05:47:16;;;;;;;7.55;6.72;;;19.10;79.20;;;;;;5033393;28;20112;-77
2022/10/01 05:49:43;;;;;;;6.97;6.28;;;19.20;79.20;;;;;;5034250;28;20029;-75
2022/10/01 05:52:13;;;;;;;7.55;6.75;;;19.10;79.10;;;;;;5034504;28;20100;-81
2022/10/01 05:54:40;;;;;;;7.20;5.72;;;19.20;79.10;;;;;;5034738;28;20036;-78
2022/10/01 05:57:06;;;;;;;6.95;6.25;;;19.20;79.10;;;;;;5033071;28;20083;-77
2022/10/01 05:59:36;;;;;;;7.60;6.60;;;19.20;79.00;;;;;;5034352;28;20068;-77
2022/10/01 06:02:04;;;;;;;7.30;6.20;;;19.30;78.90;;;;;;5033022;28;20105;-77
2022/10/01 06:04:30;;;;;;;7.55;6.55;;;19.30;78.90;;;;;;5034348;28;20478;-76
2022/10/01 06:06:56;;;;;;;7.82;6.45;;;19.30;78.90;;;;;;5034157;28;20018;-77
2022/10/01 06:09:22;;;;;;;6.47;5.60;;;19.30;78.80;;;;;;5034528;28;20030;-76
2022/10/01 06:11:47;;;;;;;7.25;6.13;;;19.40;78.80;;;;;;5032934;28;20033;-77
2022/10/01 06:14:13;;;;;;;7.25;6.32;;;19.40;78.80;;;;;;5032725;28;20387;-78
2022/10/01 06:16:39;;;;;;;7.03;6.32;;;19.40;78.80;;;;;;5033760;28;20059;-76
2022/10/01 06:19:05;;;;;;;6.82;6.10;;;19.50;78.80;;;;;;5033936;28;20036;-78
2022/10/01 06:21:30;;;;;;;7.35;6.35;;;19.50;78.80;;;;;;5034059;28;20040;-76
2022/10/01 06:23:56;;;;;;;8.40;6.57;;;19.50;78.80;;;;;;5034394;28;20032;-76
2022/10/01 06:26:23;;;;;;;8.32;6.63;;;19.50;78.80;;;;;;5032781;28;20116;-76
2022/10/01 06:28:49;;;;;;;8.05;6.72;;;19.50;78.70;;;;;;5033915;28;20036;-76
2022/10/01 06:31:15;;;;;;;7.10;6.38;;;19.60;78.70;;;;;;5033404;28;20479;-77
2022/10/01 06:33:41;;;;;;;7.18;6.07;;;19.50;78.70;;;;;;5032258;28;20116;-77
2022/10/01 06:36:07;;;;;;;7.07;6.20;;;19.60;78.80;;;;;;5032877;28;20126;-77
2022/10/01 06:38:32;;;;;;;7.15;6.00;;;19.60;78.80;;;;;;5032185;28;20061;-77
2022/10/01 06:41:11;;;;;;;7.95;6.32;;;19.60;78.80;;;;;;5107509;27;1325840;-78
2022/10/01 06:43:37;;;;;;;7.43;6.63;;;19.60;78.80;;;;;;5129881;28;20031;-79
2022/10/01 06:46:04;;;;;;;7.70;6.25;;;19.70;78.80;;;;;;5131090;28;20034;-77
2022/10/01 06:48:30;;;;;;;7.60;6.18;;;19.70;78.80;;;;;;5113001;28;20057;-77
2022/10/01 06:50:57;;;;;;;7.18;6.07;;;19.70;78.80;;;;;;5131623;28;20050;-77
2022/10/01 06:53:22;;;;;;;6.85;5.95;;;19.70;78.70;;;;;;5113023;28;20540;-77
2022/10/01 06:55:48;;;;;;;8.05;6.13;;;19.80;78.80;;;;;;5112943;28;20107;-77
2022/10/01 06:58:14;;;;;;;7.32;6.18;;;19.80;78.60;;;;;;5112676;28;20034;-77
2022/10/01 07:00:40;;;;;;;8.13;6.35;;;19.80;78.60;;;;;;5130304;28;20039;-75
2022/10/01 07:03:10;;;;;;;8.00;5.90;;;19.80;78.60;;;;;;5131862;28;20023;-82
2022/10/01 07:05:37;;;;;;;6.38;5.70;;;19.80;78.60;;;;;;5114248;28;20031;-79
2022/10/01 07:08:03;;;;;;;6.43;5.72;;;19.90;78.60;;;;;;5131276;28;20024;-80
2022/10/01 07:10:31;;;;;;;6.93;5.78;;;19.90;78.50;;;;;;5131142;28;20028;-81
2022/10/01 07:13:15;;;;;;;6.15;5.30;;;19.90;78.40;;;;;;5131003;28;20051;-80
2022/10/01 07:15:41;;;;;;;6.40;5.28;;;20.00;78.30;;;;;;5112852;28;20027;-82
2022/10/01 07:18:10;;;;;;;6.03;5.38;;;20.00;78.30;;;;;;5112779;28;20032;-80
2022/10/01 07:20:38;;;;;;;7.13;5.47;;;20.00;78.20;;;;;;5130608;28;20118;-81
2022/10/01 07:23:06;;;;;;;5.88;5.28;;;20.00;78.00;;;;;;5131030;28;20111;-81
2022/10/01 07:25:32;;;;;;;5.60;5.00;;;20.10;78.00;;;;;;5130675;28;20088;-81
2022/10/01 07:28:01;;;;;;;5.40;4.85;;;20.10;77.90;;;;;;5131104;28;20023;-82
2022/10/01 07:30:27;;;;;;;5.95;5.28;;;20.10;77.70;;;;;;5130770;28;20027;-78
2022/10/01 07:32:55;;;;;;;6.10;4.63;;;20.20;77.70;;;;;;5125254;28;20036;-79
2022/10/01 07:35:22;;;;;;;5.68;4.65;;;20.20;77.60;;;;;;5110561;28;20059;-80
2022/10/01 07:37:54;;;;;;;9.45;5.07;;;20.20;77.40;;;;;;5091952;28;20058;-79
2022/10/01 07:40:20;;;;;;;5.18;4.68;;;20.30;77.40;;;;;;5110980;28;20079;-79
2022/10/01 07:42:55;;;;;;;5.07;4.53;;;20.30;77.30;;;;;;5109612;28;20056;-81
2022/10/01 07:45:22;;;;;;;5.05;4.55;;;20.30;77.10;;;;;;5110035;28;20024;-78
2022/10/01 07:48:00;;;;;;;5.15;4.65;;;20.30;77.00;;;;;;5109881;28;20028;-79
2022/10/01 07:50:29;;;;;;;5.22;4.63;;;20.40;76.90;;;;;;5090456;28;20042;-80
2022/10/01 07:52:57;;;;;;;5.00;4.50;;;20.40;76.90;;;;;;5096260;28;20026;-80
2022/10/01 07:55:27;;;;;;;9.75;4.32;;;20.40;76.80;;;;;;5078822;28;20024;-80
2022/10/01 07:57:55;;;;;;;4.43;4.00;;;20.50;76.80;;;;;;5096173;28;20026;-82
2022/10/01 08:00:22;;;;;;;4.78;4.18;;;20.50;76.60;;;;;;5095765;28;20024;-82
2022/10/01 08:02:50;;;;;;;5.40;3.90;;;20.60;76.60;;;;;;5077805;28;20032;-79
2022/10/01 08:05:17;;;;;;;4.28;3.78;;;20.60;76.50;;;;;;5096099;28;20024;-80
2022/10/01 08:07:43;;;;;;;5.18;3.95;;;20.70;76.40;;;;;;5078808;28;20032;-81
2022/10/01 08:10:09;;;;;;;9.00;4.47;;;20.80;76.30;;;;;;5078470;28;20028;-81
2022/10/01 08:12:35;;;;;;;5.45;4.20;;;20.90;76.10;;;;;;5077945;28;20492;-81
2022/10/01 08:15:05;;;;;;;4.80;3.85;;;21.00;76.00;;;;;;5096497;28;20484;-81
2022/10/01 08:17:33;;;;;;;4.82;3.75;;;21.10;75.80;;;;;;5077774;28;20024;-82
2022/10/01 08:19:58;;;;;;;4.72;3.58;;;21.20;75.60;;;;;;5077960;28;20045;-83
2022/10/01 08:22:24;;;;;;;5.75;4.03;;;21.30;76.00;;;;;;5096592;28;20481;-82
2022/10/01 08:24:50;;;;;;;5.78;3.88;;;21.40;75.30;;;;;;5095907;28;20029;-79
2022/10/01 08:27:15;;;;;;;4.43;3.95;;;21.40;75.00;;;;;;5096112;28;20024;-80
2022/10/01 08:29:42;;;;;;;4.30;3.90;;;21.50;74.90;;;;;;5077782;28;20028;-81
2022/10/01 08:32:09;;;;;;;5.07;3.53;;;21.50;74.70;;;;;;5077340;28;20504;-83
2022/10/01 08:34:35;;;;;;;4.00;3.60;;;21.50;74.40;;;;;;5095757;28;20052;-81
2022/10/01 08:37:00;;;;;;;4.03;3.63;;;21.60;74.40;;;;;;5095688;28;20104;-80
2022/10/01 08:39:26;;;;;;;4.22;3.35;;;21.60;74.30;;;;;;5073822;28;20490;-80
2022/10/01 08:42:24;;;;;;;4.50;3.70;;;21.70;74.20;;;;;;5075622;28;20040;-83
2022/10/01 08:44:51;;;;;;;4.45;3.83;;;21.70;73.70;;;;;;5074095;28;20021;-80
2022/10/01 08:47:37;;;;;;;3.90;3.38;;;21.70;74.50;;;;;;5073552;28;20068;-80
2022/10/01 08:50:18;;;;;;;4.47;3.40;;;21.80;73.60;;;;;;5075229;28;20052;-81
2022/10/01 08:52:53;;;;;;;3.67;2.95;;;21.90;73.30;;;;;;5074153;28;20029;-81
2022/10/01 08:55:23;;;;;;;4.15;2.88;;;22.00;73.30;;;;;;5073800;28;20020;-77
2022/10/01 08:57:54;;;;;;;3.58;3.28;;;22.00;73.00;;;;;;5075123;28;20024;-81
2022/10/01 09:00:20;;;;;;;3.83;3.05;;;22.00;72.80;;;;;;5073855;28;20063;-82
2022/10/01 09:02:47;;;;;;;4.00;3.00;;;22.10;72.70;;;;;;5072862;28;20048;-83
2022/10/01 09:05:56;;;;;;;3.22;2.78;;;22.10;72.40;;;;;;5073953;28;20433;-81
2022/10/01 09:08:42;;;;;;;2.65;2.45;;;22.10;72.00;;;;;;5052056;28;20135;-80
2022/10/01 09:11:20;;;;;;;2.60;2.40;;;22.00;72.20;;;;;;5073556;28;20029;-81
2022/10/01 09:14:07;;;;;;;2.97;2.55;;;22.00;72.00;;;;;;5074964;28;20029;-80
2022/10/01 09:16:57;;;;;;;3.20;2.63;;;22.00;71.70;;;;;;5075800;28;20048;-80
2022/10/01 09:19:55;;;;;;;2.58;2.38;;;22.00;71.80;;;;;;5075018;28;20048;-80
2022/10/01 09:22:33;;;;;;;2.90;2.50;;;22.00;71.20;;;;;;5074550;28;20035;-81
2022/10/01 09:25:23;;;;;;;3.03;2.60;;;22.00;71.60;;;;;;5073815;28;20431;-79
2022/10/01 09:28:15;;;;;;;2.60;2.40;;;22.00;71.10;;;;;;5061192;28;20075;-81
2022/10/01 09:30:46;;;;;;;3.17;2.70;;;22.00;71.20;;;;;;5074193;28;20032;-81
2022/10/01 09:33:22;;;;;;;2.72;2.53;;;22.10;71.50;;;;;;5074321;28;20029;-80
2022/10/01 09:35:50;;;;;;;2.67;2.47;;;22.00;71.20;;;;;;5074394;28;20058;-81
2022/10/01 09:38:39;;;;;;;3.35;2.45;;;22.00;71.10;;;;;;5074241;28;20032;-81
2022/10/01 09:41:10;;;;;;;2.95;2.40;;;22.00;70.70;;;;;;5072614;28;20070;-80
2022/10/01 09:43:39;;;;;;;2.70;2.50;;;22.00;71.10;;;;;;5074820;28;20071;-82
2022/10/01 09:46:12;;;;;;;2.70;2.30;;;22.10;71.10;;;;;;5074480;28;20028;-80
2022/10/01 09:48:50;;;;;;;2.70;2.50;;;22.10;70.90;;;;;;5074204;28;20032;-80
2022/10/01 09:51:35;;;;;;;2.72;2.38;;;22.10;70.70;;;;;;5075768;28;20123;-81
2022/10/01 09:54:06;;;;;;;;;;;22.10;70.40;;;;;;5074337;28;20068;-80
2022/10/01 09:56:43;;;;;;;2.72;2.20;;;22.10;69.70;;;;;;5074079;28;20362;-80
2022/10/01 09:59:19;;;;;;;2.50;2.30;;;22.10;70.50;;;;;;5074490;28;20021;-82
2022/10/01 10:01:50;;;;;;;2.85;2.50;;;22.20;70.50;;;;;;5073850;28;20029;-81
2022/10/01 10:04:22;;;;;;;2.67;2.30;;;22.20;70.30;;;;;;5073624;28;20394;-82
2022/10/01 10:06:48;;;;;;;2.60;2.40;;;22.20;70.20;;;;;;5075990;28;20028;-80
2022/10/01 10:09:17;;;;;;;4.03;2.40;;;22.20;70.00;;;;;;5075262;28;20059;-81
2022/10/01 10:11:44;;;;;;;3.50;2.63;;;22.30;70.00;;;;;;5074069;28;20035;-80
2022/10/01 10:14:19;;;;;;;2.42;2.20;;;22.20;69.80;;;;;;5073807;28;20032;-82
2022/10/01 10:16:46;;;;;;;2.50;2.28;;;22.30;69.70;;;;;;5074161;28;20062;-81
2022/10/01 10:19:31;;;;;;;2.40;2.20;;;22.20;69.70;;;;;;5072944;28;20024;-80
2022/10/01 10:22:07;;;;;;;;;;;22.30;69.20;;;;;;5073673;28;20115;-81
2022/10/01 10:24:34;;;;;;;2.33;2.13;;;22.20;68.50;;;;;;5074060;28;19926;-83
2022/10/01 10:27:05;;;;;;;2.63;2.35;;;22.30;69.50;;;;;;5073375;28;21011;-81
2022/10/01 10:29:35;;;;;;;2.70;2.42;;;22.30;69.40;;;;;;5074289;28;20056;-81
2022/10/01 10:32:24;;;;;;;2.47;2.28;;;22.30;69.30;;;;;;5072489;28;20024;-80
2022/10/01 10:34:53;;;;;;;3.10;2.30;;;22.30;68.90;;;;;;5072621;28;20485;-80
2022/10/01 10:37:25;;;;;;;2.25;1.98;;;22.30;69.10;;;;;;5076634;28;20032;-83
2022/10/01 10:39:52;;;;;;;2.50;2.30;;;22.30;68.90;;;;;;5073577;28;20084;-81
2022/10/01 10:42:21;;;;;;;2.13;1.95;;;22.40;69.00;;;;;;5073925;28;20051;-81
2022/10/01 10:44:48;;;;;;;2.75;2.10;;;22.40;68.90;;;;;;5072968;28;20119;-80
2022/10/01 10:47:16;;;;;;;2.35;2.15;;;22.50;68.80;;;;;;5072669;28;20028;-80
2022/10/01 10:49:48;;;;;;;2.50;2.30;;;22.50;68.70;;;;;;5072580;28;20036;-80
2022/10/01 10:52:28;;;;;;;3.25;2.30;;;22.60;68.50;;;;;;5072526;28;20430;-79
2022/10/01 10:54:55;;;;;;;2.50;2.28;;;22.60;68.40;;;;;;5074683;28;20028;-80
2022/10/01 10:57:30;;;;;;;2.40;2.20;;;22.70;68.30;;;;;;5074065;28;20024;-80
2022/10/01 11:00:10;;;;;;;2.65;1.98;;;22.70;68.20;;;;;;5071074;28;20036;-80
2022/10/01 11:02:39;;;;;;;2.20;2.00;;;22.70;68.10;;;;;;5073285;28;20036;-80
2022/10/01 11:05:20;;;;;;;2.40;2.20;;;22.80;68.00;;;;;;5072661;28;20458;-80
2022/10/01 11:07:47;;;;;;;2.03;1.83;;;22.80;67.50;;;;;;5073484;28;20025;-80
2022/10/01 11:10:45;;;;;;;2.05;1.85;;;22.90;67.70;;;;;;5072320;28;20087;-79
2022/10/01 11:13:14;;;;;;;3.30;2.30;;;23.00;67.30;;;;;;5074042;28;20056;-79
2022/10/01 11:16:07;;;;;;;1.83;1.73;;;23.00;67.40;;;;;;5072334;28;20063;-82
2022/10/01 11:18:33;;;;;;;2.05;1.80;;;23.10;67.00;;;;;;5073372;28;20056;-80
2022/10/01 11:21:19;;;;;;;1.70;1.60;;;23.10;67.10;;;;;;5073384;28;20060;-80
2022/10/01 11:24:08;;;;;;;2.67;2.10;;;23.10;66.90;;;;;;5073995;28;20150;-81
2022/10/01 11:26:52;;;;;;;2.05;1.95;;;23.20;66.30;;;;;;5074900;28;20043;-79
2022/10/01 11:29:46;;;;;;;1.90;1.80;;;23.20;66.60;;;;;;5077096;28;20074;-80
2022/10/01 11:32:18;;;;;;;1.90;1.70;;;23.30;65.90;;;;;;5077144;28;20020;-80
2022/10/01 11:35:05;;;;;;;2.30;2.10;;;23.30;66.20;;;;;;5077121;28;20029;-79
2022/10/01 11:37:52;;;;;;;1.83;1.73;;;23.30;66.00;;;;;;5076494;28;20025;-80
2022/10/01 11:40:17;;;;;;;2.00;1.90;;;23.40;65.50;;;;;;5088249;28;20097;-77
2022/10/01 11:42:46;;;;;;;1.90;1.80;;;23.50;65.90;;;;;;5097404;28;20036;-80
2022/10/01 11:45:20;;;;;;;2.00;1.90;;;23.50;65.70;;;;;;5097336;28;20454;-80
2022/10/01 11:48:00;;;;;;;1.73;1.63;;;23.50;65.50;;;;;;5079400;28;20024;-80
2022/10/01 11:50:30;;;;;;;1.60;1.50;;;23.60;65.30;;;;;;5080005;28;20530;-80
2022/10/01 11:53:07;;;;;;;1.92;1.70;;;23.60;65.40;;;;;;5097532;28;20020;-80
2022/10/01 12:01:23;;;;;;;1.70;1.60;;;23.60;65.00;;;;;;5097173;28;20538;-80
2022/10/01 12:03:52;;;;;;;2.00;1.90;;;23.60;64.90;;;;;;5078891;28;20021;-79
2022/10/01 12:06:48;;;;;;;1.95;1.70;;;23.60;64.90;;;;;;5096876;28;20020;-81
2022/10/01 12:09:14;;;;;;;1.50;1.40;;;23.60;64.20;;;;;;5054759;28;20044;-80
2022/10/01 12:12:05;;;;;;;1.65;1.55;;;23.60;64.70;;;;;;5096486;28;20347;-81
2022/10/01 12:15:16;;;;;;;1.42;1.33;;;23.60;64.20;;;;;;5078133;28;20024;-81
2022/10/01 12:18:11;;;;;;;1.40;1.30;;;23.60;64.00;;;;;;5096468;28;20021;-79
2022/10/01 12:20:50;;;;;;;1.83;1.50;;;23.60;64.30;;;;;;5082598;28;20040;-82
2022/10/01 12:23:31;;;;;;;2.22;1.73;;;23.60;64.10;;;;;;5078060;28;20428;-79
2022/10/01 12:26:11;;;;;;;1.70;1.60;;;23.60;64.10;;;;;;5096905;28;20089;-81
2022/10/01 12:29:06;;;;;;;1.50;1.40;;;23.60;64.20;;;;;;5096350;28;20032;-81
2022/10/01 12:31:34;;;;;;;;;;;23.60;63.70;;;;;;5097412;28;20046;-79
2022/10/01 12:34:23;;;;;;;1.55;1.45;;;23.60;63.30;;;;;;5096064;28;19913;-83
2022/10/01 12:37:18;;;;;;;1.60;1.50;;;23.60;63.70;;;;;;5077408;28;20097;-81
2022/10/01 12:40:04;;;;;;;2.10;1.70;;;23.70;64.20;;;;;;5056802;28;20048;-80
2022/10/01 12:43:07;;;;;;;1.90;1.80;;;23.80;63.50;;;;;;5096538;28;20032;-81
2022/10/01 12:45:46;;;;;;;2.10;1.88;;;23.90;63.40;;;;;;5096405;28;20089;-80
2022/10/01 12:48:37;;;;;;;1.38;1.27;;;23.90;63.60;;;;;;5096091;28;20034;-82
2022/10/01 12:51:33;;;;;;;1.52;1.42;;;23.90;63.40;;;;;;5095962;28;20039;-80
2022/10/01 12:54:53;;;;;;;1.60;1.50;;;23.90;63.10;;;;;;5096199;28;20028;-80
2022/10/01 12:57:47;;;;;;;1.58;1.40;;;23.90;62.70;;;;;;4994074;28;20141;-82
2022/10/01 13:00:20;;;;;;;;;;;23.90;63.00;;;;;;5094671;28;20390;-80
2022/10/01 13:03:36;;;;;;;1.77;1.50;;;23.80;62.60;;;;;;5095542;28;19927;-81
2022/10/01 13:06:31;;;;;;;2.55;1.60;;;23.90;63.00;;;;;;5074895;28;20446;-81
2022/10/01 13:09:15;;;;;;;1.88;1.70;;;23.80;62.70;;;;;;5005869;28;20042;-80
2022/10/01 13:12:00;;;;;;;1.40;1.30;;;23.80;63.40;;;;;;5094949;28;20501;-81
2022/10/01 13:14:26;;;;;;;;;;;23.80;63.30;;;;;;5077964;28;20047;-80
2022/10/01 13:16:58;;;;;;;2.78;1.73;;;23.80;62.60;;;;;;5077137;28;19911;-81
2022/10/01 13:19:39;;;;;;;1.50;1.40;;;23.90;63.50;;;;;;5076793;28;20470;-80